Aviation Digital Data Service (ADDS)

Output produced by METARs form (0216 UTC 01 February 2023)
found at http://www.aviationweather.gov/metar/data/
 
METAR text: KHSE 010151Z AUTO 14003KT 7SM OVC010 13/13 A3008 RMK AO2 SLP187 T01280128 $
Conditions at: KHSE (HATTERAS/MITCHEL, NC, US) observed 0151 UTC 01 February 2023
Temperature: 12.8°C (55°F)
Dewpoint: 12.8°C (55°F) [RH = 100%]
Pressure (altimeter): 30.08 inches Hg (1018.7 mb)
[Sea-level pressure: 1018.7 mb]
Winds: from the SE (140 degrees) at 3 MPH (3 knots; 1.5 m/s)
Visibility: 7 miles (11 km)
Ceiling: 1000 feet AGL
Clouds: overcast cloud deck at 1000 feet AGL
Weather:
SOME DATA ABOVE MAY BE INACCURATE!!!
"$" is an indication the sensor requires maintenance

METAR text: KHSE 010117Z AUTO 00000KT 10SM OVC012 12/12 A3009 RMK AO2 T01220122 $
Conditions at: KHSE (HATTERAS/MITCHEL, NC, US) observed 0117 UTC 01 February 2023
Temperature: 12.2°C (54°F)
Dewpoint: 12.2°C (54°F) [RH = 100%]
Pressure (altimeter): 30.09 inches Hg (1019.0 mb)
Winds: calm
Visibility: 10 or more miles (16+ km)
Ceiling: 1200 feet AGL
Clouds: overcast cloud deck at 1200 feet AGL
Weather:
SOME DATA ABOVE MAY BE INACCURATE!!!
"$" is an indication the sensor requires maintenance

METAR text: KHSE 010051Z AUTO 34003KT 7SM 12/12 A3011 RMK AO2 SLP194 T01220122 $
Conditions at: KHSE (HATTERAS/MITCHEL, NC, US) observed 0051 UTC 01 February 2023
Temperature: 12.2°C (54°F)
Dewpoint: 12.2°C (54°F) [RH = 100%]
Pressure (altimeter): 30.11 inches Hg (1019.7 mb)
[Sea-level pressure: 1019.4 mb]
Winds: from the NNW (340 degrees) at 3 MPH (3 knots; 1.5 m/s)
Visibility: 7 miles (11 km)
Ceiling: unknown
Clouds: missing
Weather:
SOME DATA ABOVE MAY BE INACCURATE!!!
"$" is an indication the sensor requires maintenance

METAR text: KHSE 010021Z AUTO VRB03KT 10SM SCT009 BKN016 OVC025 12/12 A3011 RMK AO2 T01170117
Conditions at: KHSE (HATTERAS/MITCHEL, NC, US) observed 0021 UTC 01 February 2023
Temperature: 11.7°C (53°F)
Dewpoint: 11.7°C (53°F) [RH = 100%]
Pressure (altimeter): 30.11 inches Hg (1019.7 mb)
Winds: variable direction winds at 3 MPH (3 knots; 1.5 m/s)
Visibility: 10 or more miles (16+ km)
Ceiling: 1600 feet AGL
Clouds: scattered clouds at 900 feet AGL
broken clouds at 1600 feet AGL
overcast cloud deck at 2500 feet AGL
Weather: automated observation with no human augmentation;
there may or may not be significant weather present at this time